Capitol Logistics 18


PANC
Ted Stevens Anchorage International Airport
Anchorage, Alaska, US
RCTP
Taiwan Taoyuan International Airport
Taipei, , TW

Activity Log

Date Flight Route Aircraft Duration
No Flights Yet

Route Details

Aircraft Information
Primary: Boeing 747-400BCF
Backup: Boeing 777-200LRF
Route Data
Distance: 4065nm
Sched. Duration: 10h 00m
Avg. Duration: 0h 00m (-1,000m)
Times Flown: 0
Recm'd Route: NODLE R220 NANNO ALICE Y111 MQE Y124 GTC Y12 KEC A1 AISAR A1 DRAKE DRAKE1A
Planned Altitude: 32,000ft
Origin Wx: PANC 261253Z 16004KT 10SM FEW038 BKN055 OVC080 07/04 A3003 RMK AO2 SLP171 T00670039
Dest. Wx: RCTP 261330Z 24014KT 9999 FEW015 BKN120 28/26 Q1008 NOSIG RMK A2977
Notes:

Financial History
Total Freight: 0lbs
Average Load: 0lbs/flt
Fuel Used: 0lbs
Avg. Fuel Used: 0lbs/flt
Fuel Expense: $0
Avg. Fuel Expense: $0
Avg. Fuel Cost: $0/lbs
Total Gross Income: $0
Pilot Pay: $0
Total Expenses: $0
Total Revenue: $0
Average Revenue: $0